EmailTwitter


Surface observations / United Kingdom / EGTE (03839)

Regions: Quebec | Canada | USA | Europe | France | UK | Elsewhere
Station
Display
Info & Location for EGTE (03839) | Help decoding METAR

Weather Conditions observed on 2020/02/29 at 10:20 UTC at EXETER AIRPORT, UK (EGTE)

Sky conditions: few clouds.

Temperature: 6.0 Celsius.

Dewpoint: 1.0 Celsius.

Relative Humidity: 70%

Windchill Factor: 1.

Windchill Factor (Gusts): 0.

Winds: Southwest at 30 km/h or 16 knots.

Gust: 48 km/h or 26 knots.

Mean Sea level Pressure: 98.60 kilopascals.

Horizontal visibility: 6.21 statute miles or 9.94 kilometers.

Coded METAR:

EGTE 291020Z 24016G26KT 210V270 9999 FEW020 06/01 Q0986=